Time;durP1;ratioP1;P1;durP2;ratioP2;P2;SDS_P1;SDS_P2;PMS_P1;PMS_P2;Temp;Humidity;BMP_temperature;BMP_pressure;BME280_temperature;BME280_humidity;BME280_pressure;Samples;Min_cycle;Max_cycle;Signal;HPM_P1;HPM_P2
2022/05/27 00:01:43;;;;;;;3.83;3.73;;;23.00;77.30;;;;;;5052070;28;20451;-66
2022/05/27 00:04:10;;;;;;;4.20;4.10;;;23.00;77.30;;;;;;5053195;28;20451;-67
2022/05/27 00:06:37;;;;;;;3.73;3.73;;;23.00;77.50;;;;;;5052789;28;20451;-66
2022/05/27 00:09:04;;;;;;;4.30;4.10;;;23.00;77.80;;;;;;5052846;28;21078;-65
2022/05/27 00:11:32;;;;;;;4.20;4.07;;;23.00;77.80;;;;;;5053090;28;20453;-66
2022/05/27 00:13:59;;;;;;;3.90;3.90;;;23.00;77.90;;;;;;5053297;28;20440;-66
2022/05/27 00:16:27;;;;;;;4.20;4.10;;;23.00;78.10;;;;;;5053145;28;20487;-66
2022/05/27 00:18:54;;;;;;;3.87;3.77;;;23.00;78.00;;;;;;5052787;28;20502;-66
2022/05/27 00:21:21;;;;;;;4.00;4.00;;;23.00;77.90;;;;;;5052916;28;20448;-66
2022/05/27 00:23:48;;;;;;;4.23;3.90;;;23.00;77.80;;;;;;5053178;28;20452;-66
2022/05/27 00:26:14;;;;;;;3.40;3.40;;;23.00;77.70;;;;;;5052943;28;20448;-66
2022/05/27 00:28:43;;;;;;;3.67;3.60;;;23.00;77.80;;;;;;5052522;28;20487;-66
2022/05/27 00:31:10;;;;;;;3.70;3.70;;;23.00;77.90;;;;;;5052260;28;20452;-66
2022/05/27 00:33:39;;;;;;;3.67;3.63;;;23.00;77.90;;;;;;5052605;28;20444;-65
2022/05/27 00:36:08;;;;;;;3.90;3.90;;;23.00;77.80;;;;;;5052480;28;20480;-66
2022/05/27 00:38:35;;;;;;;3.80;3.70;;;23.00;77.80;;;;;;5052399;28;20501;-65
2022/05/27 00:41:02;;;;;;;3.90;3.90;;;23.00;77.80;;;;;;5052200;28;20810;-66
2022/05/27 00:43:28;;;;;;;3.97;3.90;;;23.00;77.90;;;;;;5052467;28;20440;-66
2022/05/27 00:46:01;;;;;;;3.60;3.60;;;23.00;77.90;;;;;;5052352;28;20451;-65
2022/05/27 00:48:29;;;;;;;3.40;3.40;;;23.00;77.80;;;;;;5052091;28;20469;-66
2022/05/27 00:50:57;;;;;;;3.60;3.60;;;23.00;77.90;;;;;;5052352;28;20931;-66
2022/05/27 00:53:30;;;;;;;3.80;3.80;;;23.00;77.90;;;;;;5051965;28;20444;-66
2022/05/27 00:56:01;;;;;;;3.50;3.50;;;23.00;78.00;;;;;;5052206;28;20849;-66
2022/05/27 00:58:30;;;;;;;3.97;3.87;;;23.00;78.00;;;;;;5052029;28;20468;-66
2022/05/27 01:01:00;;;;;;;3.40;3.40;;;23.00;78.20;;;;;;5052069;28;20456;-67
2022/05/27 01:03:28;;;;;;;4.10;4.00;;;23.00;78.10;;;;;;5051840;28;20448;-66
2022/05/27 01:05:55;;;;;;;3.70;3.60;;;22.90;78.10;;;;;;5051992;28;20440;-66
2022/05/27 01:08:25;;;;;;;3.87;3.87;;;22.90;78.10;;;;;;5051656;28;20466;-66
2022/05/27 01:10:57;;;;;;;3.90;3.90;;;23.00;78.20;;;;;;5051869;28;20467;-66
2022/05/27 01:13:39;;;;;;;3.83;3.83;;;23.00;78.20;;;;;;5051428;28;20441;-66
2022/05/27 01:16:16;;;;;;;3.73;3.73;;;22.90;78.20;;;;;;5051724;28;20487;-66
2022/05/27 01:22:23;;;;;;;4.10;4.00;;;22.90;78.20;;;;;;5031975;28;20504;-66
2022/05/27 01:25:23;;;;;;;3.50;3.50;;;22.90;78.30;;;;;;4992869;28;20445;-66
2022/05/27 01:28:19;;;;;;;3.90;3.80;;;22.90;78.30;;;;;;5025065;28;20484;-66
2022/05/27 01:30:51;;;;;;;4.10;3.90;;;22.90;78.20;;;;;;5029959;28;20448;-66
2022/05/27 01:33:31;;;;;;;3.93;3.90;;;22.90;78.40;;;;;;5051736;28;20451;-66
2022/05/27 01:36:06;;;;;;;3.80;3.70;;;22.90;78.40;;;;;;5051574;28;20846;-66
2022/05/27 01:38:39;;;;;;;3.87;3.77;;;22.90;78.40;;;;;;5051369;28;20464;-66
2022/05/27 01:41:11;;;;;;;4.10;4.00;;;22.90;78.30;;;;;;5051336;28;20455;-66
2022/05/27 01:43:42;;;;;;;3.50;3.50;;;22.90;78.30;;;;;;5031706;28;20445;-66
2022/05/27 01:46:15;;;;;;;3.83;3.83;;;22.90;78.40;;;;;;5031564;28;20867;-65
2022/05/27 01:48:53;;;;;;;3.40;3.40;;;22.90;78.30;;;;;;5031365;28;20538;-66
2022/05/27 01:51:25;;;;;;;3.70;3.70;;;22.90;78.20;;;;;;5031606;28;20449;-66
2022/05/27 01:53:56;;;;;;;3.77;3.77;;;22.90;78.50;;;;;;5037895;28;20935;-66
2022/05/27 01:56:29;;;;;;;3.73;3.73;;;22.90;78.40;;;;;;5051293;28;20476;-66
2022/05/27 01:59:00;;;;;;;4.00;3.90;;;22.90;78.30;;;;;;5050860;28;20471;-65
2022/05/27 02:01:35;;;;;;;3.50;3.50;;;22.90;78.40;;;;;;5051318;28;20439;-66
2022/05/27 02:04:05;;;;;;;3.90;3.90;;;22.90;78.40;;;;;;5051376;28;20810;-66
2022/05/27 02:06:36;;;;;;;3.80;3.80;;;22.80;78.30;;;;;;5051150;28;20466;-66
2022/05/27 02:09:08;;;;;;;4.90;4.80;;;22.80;78.30;;;;;;5050930;28;20472;-65
2022/05/27 02:11:35;;;;;;;3.80;3.80;;;22.90;78.40;;;;;;5051299;28;20928;-65
2022/05/27 02:14:09;;;;;;;3.67;3.67;;;22.90;78.40;;;;;;5051145;28;20446;-66
2022/05/27 02:16:40;;;;;;;3.70;3.70;;;22.80;78.30;;;;;;5051113;28;20482;-66
2022/05/27 02:19:11;;;;;;;3.53;3.53;;;22.80;78.30;;;;;;5050742;28;20468;-66
2022/05/27 02:21:43;;;;;;;3.93;3.83;;;22.80;78.20;;;;;;5051181;28;20444;-65
2022/05/27 02:24:14;;;;;;;4.00;3.90;;;22.80;78.10;;;;;;5051912;28;20455;-66
2022/05/27 02:26:45;;;;;;;3.60;3.57;;;22.80;78.30;;;;;;5055073;28;20440;-65
2022/05/27 02:29:15;;;;;;;3.77;3.70;;;22.80;78.20;;;;;;5054502;28;20480;-65
2022/05/27 02:31:47;;;;;;;3.90;3.83;;;22.80;78.30;;;;;;5055017;28;20440;-66
2022/05/27 02:37:11;;;;;;;3.37;3.30;;;22.80;78.20;;;;;;5036913;28;20563;-65
2022/05/27 02:39:39;;;;;;;3.90;3.80;;;22.80;78.30;;;;;;5054908;28;20460;-66
2022/05/27 02:42:16;;;;;;;3.80;3.70;;;22.80;78.50;;;;;;5054422;28;20444;-66
2022/05/27 02:44:51;;;;;;;3.60;3.60;;;22.80;78.50;;;;;;5054673;28;21008;-65
2022/05/27 02:47:28;;;;;;;3.60;3.50;;;22.80;78.50;;;;;;5054582;28;20490;-66
2022/05/27 02:49:59;;;;;;;3.70;3.60;;;22.80;78.60;;;;;;5054577;28;20444;-65
2022/05/27 02:52:33;;;;;;;3.80;3.60;;;22.80;78.40;;;;;;5054617;28;20447;-65
2022/05/27 02:55:12;;;;;;;3.90;3.90;;;22.70;78.40;;;;;;5054185;28;20970;-65
2022/05/27 02:57:43;;;;;;;3.90;3.80;;;22.80;78.60;;;;;;5054391;28;20542;-66
2022/05/27 03:00:12;;;;;;;4.10;4.00;;;22.70;78.40;;;;;;5054392;28;20447;-66
2022/05/27 03:02:41;;;;;;;3.67;3.57;;;22.70;78.60;;;;;;5054060;28;20440;-66
2022/05/27 03:05:08;;;;;;;4.00;3.90;;;22.70;78.60;;;;;;5054064;28;20459;-66
2022/05/27 03:07:42;;;;;;;3.73;3.63;;;22.70;78.60;;;;;;5054094;28;20927;-65
2022/05/27 03:10:22;;;;;;;3.70;3.70;;;22.70;78.60;;;;;;5054324;28;20954;-66
2022/05/27 03:13:12;;;;;;;3.77;3.67;;;22.70;78.80;;;;;;5053988;28;20448;-66
2022/05/27 03:15:51;;;;;;;4.47;4.27;;;22.70;78.70;;;;;;5054166;28;20475;-66
2022/05/27 03:18:31;;;;;;;3.97;3.87;;;22.70;78.80;;;;;;5053827;28;20581;-66
2022/05/27 03:21:10;;;;;;;3.70;3.60;;;22.70;78.70;;;;;;5054205;28;20444;-65
2022/05/27 03:23:50;;;;;;;4.10;4.00;;;22.70;78.70;;;;;;5054076;28;20444;-66
2022/05/27 03:26:25;;;;;;;4.50;4.30;;;22.70;78.80;;;;;;5053881;28;20444;-65
2022/05/27 03:29:02;;;;;;;3.60;3.60;;;22.70;78.80;;;;;;5053499;28;20979;-65
2022/05/27 03:31:33;;;;;;;4.20;4.10;;;22.70;78.80;;;;;;5053968;28;20531;-65
2022/05/27 03:34:09;;;;;;;4.13;4.13;;;22.70;78.80;;;;;;5053744;28;20459;-66
2022/05/27 03:36:43;;;;;;;4.20;4.20;;;22.70;78.80;;;;;;5053223;28;20472;-66
2022/05/27 03:39:16;;;;;;;3.80;3.80;;;22.70;78.70;;;;;;5053578;28;20460;-66
2022/05/27 03:41:48;;;;;;;4.20;4.20;;;22.70;78.70;;;;;;5053795;28;20935;-66
2022/05/27 03:44:16;;;;;;;4.30;4.20;;;22.70;79.00;;;;;;5053656;28;20451;-66
2022/05/27 03:46:44;;;;;;;4.20;4.10;;;22.70;78.70;;;;;;5053513;28;20446;-67
2022/05/27 03:49:12;;;;;;;4.70;4.60;;;22.70;78.50;;;;;;5053067;28;20472;-66
2022/05/27 03:51:48;;;;;;;3.90;3.90;;;22.70;78.40;;;;;;5053560;28;20444;-66
2022/05/27 03:54:15;;;;;;;4.73;4.60;;;22.70;78.60;;;;;;5053471;28;20518;-66
2022/05/27 03:56:43;;;;;;;4.10;4.00;;;22.70;78.60;;;;;;5053177;28;21017;-67
2022/05/27 03:59:13;;;;;;;3.80;3.80;;;22.70;78.70;;;;;;5053143;28;20460;-67
2022/05/27 04:01:42;;;;;;;4.03;3.93;;;22.70;78.70;;;;;;5053035;28;20440;-67
2022/05/27 04:04:14;;;;;;;4.30;4.20;;;22.70;78.80;;;;;;5053186;28;20440;-66
2022/05/27 04:06:41;;;;;;;4.27;4.17;;;22.70;78.80;;;;;;5053250;28;20463;-67
2022/05/27 04:09:08;;;;;;;4.50;4.40;;;22.70;78.80;;;;;;5052721;28;20495;-67
2022/05/27 04:11:35;;;;;;;5.00;4.90;;;22.70;78.80;;;;;;5053018;28;20436;-66
2022/05/27 04:14:02;;;;;;;4.43;4.33;;;22.70;78.80;;;;;;5053052;28;20444;-66
2022/05/27 04:16:29;;;;;;;4.83;4.53;;;22.70;78.80;;;;;;5052855;28;20480;-67
2022/05/27 04:18:56;;;;;;;7.57;6.93;;;22.80;80.50;;;;;;5052442;28;20464;-66
2022/05/27 04:21:24;;;;;;;7.10;6.67;;;22.80;83.40;;;;;;5052921;28;20452;-66
2022/05/27 04:23:51;;;;;;;6.03;5.60;;;22.70;84.90;;;;;;5052987;28;20447;-66
2022/05/27 04:26:18;;;;;;;6.33;5.67;;;22.70;87.20;;;;;;5052724;28;20463;-66
2022/05/27 04:28:45;;;;;;;6.70;6.10;;;22.70;89.90;;;;;;5087694;22;20482;-59
2022/05/27 04:31:12;;;;;;;9.80;6.10;;;22.70;91.80;;;;;;5084496;28;20488;-58
2022/05/27 04:33:39;;;;;;;8.17;5.90;;;22.80;91.90;;;;;;5092897;28;20927;-57
2022/05/27 04:36:07;;;;;;;9.23;7.00;;;22.80;91.10;;;;;;5092855;28;20486;-59
2022/05/27 04:38:37;;;;;;;6.60;6.00;;;22.80;90.60;;;;;;5092394;28;20523;-60
2022/05/27 04:41:04;;;;;;;7.57;6.93;;;22.80;90.40;;;;;;5092713;28;20515;-62
2022/05/27 04:43:31;;;;;;;6.07;5.77;;;22.80;90.10;;;;;;5092662;28;20438;-60
2022/05/27 04:45:57;;;;;;;6.57;6.17;;;22.80;89.90;;;;;;5092719;28;20439;-60
2022/05/27 04:48:24;;;;;;;5.67;5.33;;;22.80;89.50;;;;;;5091689;28;20805;-62
2022/05/27 04:50:51;;;;;;;8.00;5.77;;;22.80;89.60;;;;;;5092557;28;20453;-59
2022/05/27 04:53:18;;;;;;;7.03;6.40;;;22.80;88.80;;;;;;5092528;28;20461;-62
2022/05/27 04:55:46;;;;;;;5.50;5.10;;;22.80;88.80;;;;;;5092358;28;20785;-62
2022/05/27 04:58:13;;;;;;;6.93;6.53;;;22.80;88.50;;;;;;5092070;28;20473;-60
2022/05/27 05:00:42;;;;;;;7.77;7.10;;;22.80;88.00;;;;;;5092375;28;20442;-59
2022/05/27 05:03:10;;;;;;;6.50;6.10;;;22.80;87.80;;;;;;5092317;28;20446;-59
2022/05/27 05:05:37;;;;;;;6.10;5.67;;;22.80;87.60;;;;;;5092444;28;20442;-57
2022/05/27 05:08:07;;;;;;;6.77;6.30;;;22.80;87.20;;;;;;5091980;28;20478;-62
2022/05/27 05:10:34;;;;;;;6.30;5.80;;;22.80;87.10;;;;;;5092231;28;20442;-60
2022/05/27 05:13:03;;;;;;;7.23;6.27;;;22.80;86.80;;;;;;5092247;28;20473;-59
2022/05/27 05:15:30;;;;;;;5.97;5.60;;;22.80;86.60;;;;;;5092089;28;20452;-60
2022/05/27 05:17:57;;;;;;;7.30;6.60;;;22.80;86.30;;;;;;5091786;28;20474;-62
2022/05/27 05:20:26;;;;;;;6.10;5.60;;;22.80;86.20;;;;;;5091927;28;20446;-61
2022/05/27 05:22:53;;;;;;;6.37;6.07;;;22.80;86.00;;;;;;5092028;28;20446;-59
2022/05/27 05:25:21;;;;;;;5.80;5.50;;;22.80;85.70;;;;;;5091946;28;20445;-59
2022/05/27 05:27:48;;;;;;;7.47;6.73;;;22.80;85.60;;;;;;5091558;28;20442;-60
2022/05/27 05:30:18;;;;;;;6.00;5.80;;;22.80;85.40;;;;;;5091936;28;20446;-59
2022/05/27 05:32:45;;;;;;;6.23;5.93;;;22.80;85.20;;;;;;5091983;28;20447;-60
2022/05/27 05:35:13;;;;;;;5.40;5.20;;;22.80;85.00;;;;;;5091795;28;20450;-59
2022/05/27 05:37:40;;;;;;;6.87;6.37;;;22.70;84.70;;;;;;5091519;28;21008;-61
2022/05/27 05:40:09;;;;;;;6.83;6.23;;;22.80;84.60;;;;;;5091761;28;20442;-62
2022/05/27 05:42:37;;;;;;;6.17;5.87;;;22.80;84.40;;;;;;5091747;28;20447;-61
2022/05/27 05:45:04;;;;;;;5.93;5.63;;;22.80;84.30;;;;;;5091686;28;20983;-59
2022/05/27 05:47:32;;;;;;;5.80;5.40;;;22.80;84.10;;;;;;5091653;28;20453;-61
2022/05/27 05:49:59;;;;;;;5.43;5.23;;;22.80;84.00;;;;;;5091564;28;20466;-60
2022/05/27 05:52:26;;;;;;;5.97;5.57;;;22.70;83.70;;;;;;5091639;28;20445;-60
2022/05/27 05:54:52;;;;;;;6.00;5.80;;;22.70;83.50;;;;;;5091512;28;20450;-61
2022/05/27 05:57:19;;;;;;;5.40;5.10;;;22.70;83.40;;;;;;5091244;28;20478;-62
2022/05/27 05:59:47;;;;;;;5.73;5.43;;;22.70;83.30;;;;;;5095197;28;20470;-61
2022/05/27 06:02:14;;;;;;;6.20;5.90;;;22.70;83.10;;;;;;5095812;28;20511;-59
2022/05/27 06:04:42;;;;;;;6.17;5.87;;;22.70;83.00;;;;;;5095784;28;20446;-60
2022/05/27 06:07:08;;;;;;;6.20;5.80;;;22.70;82.80;;;;;;5095554;28;20435;-61
2022/05/27 06:09:36;;;;;;;6.00;5.80;;;22.70;82.70;;;;;;5095493;28;20466;-61
2022/05/27 06:12:03;;;;;;;5.50;5.30;;;22.70;82.60;;;;;;5095583;28;20798;-60
2022/05/27 06:14:30;;;;;;;6.10;5.70;;;22.70;82.50;;;;;;5095572;28;20441;-60
2022/05/27 06:16:57;;;;;;;5.40;5.10;;;22.70;82.40;;;;;;5095376;28;21019;-61
2022/05/27 06:19:24;;;;;;;5.73;5.43;;;22.70;82.30;;;;;;5095241;28;20466;-62
2022/05/27 06:21:52;;;;;;;5.20;5.00;;;22.70;82.20;;;;;;5095497;28;20438;-60
2022/05/27 06:24:19;;;;;;;5.83;5.63;;;22.70;82.20;;;;;;5095388;28;20443;-60
2022/05/27 06:26:45;;;;;;;6.13;5.83;;;22.70;82.10;;;;;;5095190;28;20442;-61
2022/05/27 06:34:41;;;;;;;6.20;6.00;;;22.70;81.80;;;;;;5095341;28;20421;-60
2022/05/27 06:37:14;;;;;;;5.67;5.47;;;22.70;81.70;;;;;;5094973;28;20477;-61
2022/05/27 06:39:42;;;;;;;6.10;5.70;;;22.70;81.60;;;;;;5094940;28;20610;-60
2022/05/27 06:42:11;;;;;;;6.03;5.63;;;22.70;81.50;;;;;;5095106;28;20438;-62
2022/05/27 06:44:38;;;;;;;6.00;5.80;;;22.70;81.50;;;;;;5095040;28;20448;-59
2022/05/27 06:47:06;;;;;;;5.37;5.20;;;22.70;81.50;;;;;;5094852;28;20438;-61
2022/05/27 06:49:32;;;;;;;5.60;5.40;;;22.70;81.30;;;;;;5094709;28;20832;-62
2022/05/27 06:51:59;;;;;;;5.60;5.40;;;22.70;81.30;;;;;;5095087;28;20465;-62
2022/05/27 06:54:27;;;;;;;5.63;5.53;;;22.70;81.20;;;;;;5094738;28;20453;-59
2022/05/27 06:56:54;;;;;;;6.07;5.70;;;22.70;81.10;;;;;;5094539;28;20489;-62
2022/05/27 06:59:23;;;;;;;5.53;5.33;;;22.70;81.10;;;;;;5094584;28;20469;-59
2022/05/27 07:01:49;;;;;;;5.30;5.10;;;22.70;81.10;;;;;;5094673;28;20445;-61
2022/05/27 07:04:18;;;;;;;5.50;5.30;;;22.70;81.00;;;;;;5094552;28;20446;-62
2022/05/27 07:06:47;;;;;;;6.40;6.17;;;22.70;81.00;;;;;;5094617;28;20499;-63
2022/05/27 07:09:17;;;;;;;5.20;5.10;;;22.70;80.90;;;;;;5094342;28;20809;-60
2022/05/27 07:11:47;;;;;;;5.83;5.53;;;22.70;80.80;;;;;;5093912;28;20453;-59
2022/05/27 07:14:15;;;;;;;6.40;6.03;;;22.70;80.80;;;;;;5094606;28;20446;-60
2022/05/27 07:16:42;;;;;;;6.00;5.80;;;22.60;80.60;;;;;;5094240;28;20486;-62
2022/05/27 07:19:09;;;;;;;5.70;5.50;;;22.70;80.70;;;;;;5094114;28;20537;-61
2022/05/27 07:21:39;;;;;;;5.93;5.73;;;22.70;80.60;;;;;;5094385;28;20450;-59
2022/05/27 07:24:08;;;;;;;5.83;5.53;;;22.70;80.50;;;;;;5094188;28;20446;-61
2022/05/27 07:26:35;;;;;;;6.30;6.03;;;22.70;80.50;;;;;;5094187;28;20443;-62
2022/05/27 07:29:04;;;;;;;6.07;5.83;;;22.70;80.50;;;;;;5093698;28;20996;-60
2022/05/27 07:31:30;;;;;;;5.93;5.73;;;22.70;80.40;;;;;;5094098;28;20964;-59
2022/05/27 07:33:58;;;;;;;5.80;5.50;;;22.70;80.30;;;;;;5094123;28;20438;-59
2022/05/27 07:36:25;;;;;;;6.20;5.83;;;22.70;80.30;;;;;;5093938;28;20450;-61
2022/05/27 07:38:52;;;;;;;5.70;5.50;;;22.70;80.30;;;;;;5093645;28;20812;-59
2022/05/27 07:41:20;;;;;;;5.87;5.67;;;22.70;80.20;;;;;;5093977;28;20443;-61
2022/05/27 07:43:47;;;;;;;5.70;5.50;;;22.70;80.20;;;;;;5093873;28;20458;-59
2022/05/27 07:46:17;;;;;;;5.57;5.43;;;22.70;80.10;;;;;;5093836;28;20438;-62
2022/05/27 07:48:44;;;;;;;5.73;5.53;;;22.60;80.00;;;;;;5093438;28;20549;-59
2022/05/27 07:51:11;;;;;;;6.10;5.90;;;22.70;80.00;;;;;;5093801;28;20827;-62
2022/05/27 07:53:38;;;;;;;6.30;6.00;;;22.60;79.90;;;;;;5093671;28;20450;-61
2022/05/27 07:56:06;;;;;;;5.87;5.67;;;22.60;79.90;;;;;;5093644;28;20500;-61
2022/05/27 07:58:32;;;;;;;6.50;6.40;;;22.60;79.90;;;;;;5093406;28;20489;-59
2022/05/27 08:00:59;;;;;;;5.97;5.80;;;22.60;79.80;;;;;;5093624;28;20444;-60
2022/05/27 08:03:28;;;;;;;6.70;6.40;;;22.70;79.90;;;;;;5093445;28;20956;-62
2022/05/27 08:05:55;;;;;;;6.40;6.30;;;22.60;79.70;;;;;;5093543;28;20442;-61
2022/05/27 08:08:23;;;;;;;6.10;5.80;;;22.70;79.80;;;;;;5093030;28;20477;-59
2022/05/27 08:10:50;;;;;;;6.17;5.97;;;22.60;79.60;;;;;;5093534;28;20454;-60
2022/05/27 08:13:17;;;;;;;6.33;6.13;;;22.70;79.80;;;;;;5093410;28;20797;-61
2022/05/27 08:15:44;;;;;;;6.00;5.90;;;22.60;79.60;;;;;;5093211;28;20442;-60
2022/05/27 08:18:11;;;;;;;6.03;5.83;;;22.60;79.60;;;;;;5092939;28;20482;-62
2022/05/27 08:20:40;;;;;;;6.37;6.17;;;22.70;79.70;;;;;;5093190;28;20442;-61
2022/05/27 08:23:07;;;;;;;6.23;6.03;;;22.70;79.60;;;;;;5092094;28;20799;-61
2022/05/27 08:25:35;;;;;;;6.57;6.27;;;22.70;79.60;;;;;;5093001;28;20438;-60
2022/05/27 08:28:03;;;;;;;5.80;5.70;;;22.60;79.50;;;;;;5092619;28;20949;-62
2022/05/27 08:30:32;;;;;;;5.40;5.30;;;22.60;79.40;;;;;;5092917;28;20443;-60
2022/05/27 08:32:59;;;;;;;5.70;5.60;;;22.60;80.20;;;;;;5092929;28;20453;-61
2022/05/27 08:38:18;;;;;;;5.63;5.53;;;22.70;79.50;;;;;;5092541;28;20531;-59
2022/05/27 08:41:06;;;;;;;5.63;5.53;;;22.60;79.30;;;;;;5092805;28;20786;-59
2022/05/27 08:43:37;;;;;;;6.33;6.03;;;22.70;79.40;;;;;;5092832;28;20442;-61
2022/05/27 08:46:13;;;;;;;5.73;5.53;;;22.60;79.20;;;;;;5092679;28;20446;-62
2022/05/27 08:48:43;;;;;;;6.20;5.90;;;22.60;79.20;;;;;;5092419;28;20796;-61
2022/05/27 08:51:16;;;;;;;5.90;5.80;;;22.60;79.20;;;;;;5092438;28;20453;-58
2022/05/27 08:53:48;;;;;;;5.70;5.60;;;22.60;79.20;;;;;;5092572;28;20450;-58
2022/05/27 08:59:27;;;;;;;6.33;6.13;;;22.60;79.10;;;;;;5092180;28;20604;-62
2022/05/27 09:01:58;;;;;;;5.60;5.50;;;22.60;79.10;;;;;;5092473;28;20453;-60
2022/05/27 09:04:33;;;;;;;6.27;6.03;;;22.60;79.20;;;;;;5092423;28;20465;-58
2022/05/27 09:07:07;;;;;;;5.70;5.60;;;22.60;79.20;;;;;;5092097;28;20491;-61
2022/05/27 09:09:37;;;;;;;5.40;5.30;;;22.60;79.10;;;;;;5092177;28;20822;-58
2022/05/27 09:12:26;;;;;;;5.93;5.80;;;22.70;79.20;;;;;;5092210;28;20450;-61
2022/05/27 09:15:00;;;;;;;5.80;5.60;;;22.60;79.00;;;;;;5092262;28;20442;-56
2022/05/27 09:17:37;;;;;;;5.70;5.60;;;22.60;79.00;;;;;;5091933;28;20842;-59
2022/05/27 09:20:17;;;;;;;5.83;5.63;;;22.60;78.90;;;;;;5091971;28;20461;-62
2022/05/27 09:22:54;;;;;;;5.40;5.30;;;22.60;78.90;;;;;;5092075;28;20442;-60
2022/05/27 09:25:28;;;;;;;5.97;5.77;;;22.70;79.00;;;;;;5091925;28;20434;-60
2022/05/27 09:28:06;;;;;;;5.63;5.53;;;22.70;78.90;;;;;;5091487;28;20975;-62
2022/05/27 09:30:35;;;;;;;6.10;5.90;;;22.70;78.90;;;;;;5092010;28;20446;-62
2022/05/27 09:33:04;;;;;;;5.73;5.63;;;22.70;78.90;;;;;;5091620;28;20808;-60
2022/05/27 09:35:36;;;;;;;6.00;5.70;;;22.60;78.80;;;;;;5091791;28;20481;-61
2022/05/27 09:38:05;;;;;;;6.10;6.00;;;22.70;78.80;;;;;;5091550;28;20510;-62
2022/05/27 09:40:38;;;;;;;6.13;6.03;;;22.70;78.80;;;;;;5091750;28;20437;-62
2022/05/27 09:43:13;;;;;;;5.43;5.33;;;22.60;78.60;;;;;;5091724;28;20450;-60
2022/05/27 09:45:40;;;;;;;7.10;6.80;;;22.70;78.70;;;;;;5091732;28;20446;-60
2022/05/27 09:48:10;;;;;;;5.93;5.77;;;22.60;78.50;;;;;;5091283;28;20462;-61
2022/05/27 09:50:39;;;;;;;5.70;5.60;;;22.70;78.60;;;;;;5091659;28;20448;-61
2022/05/27 09:53:08;;;;;;;5.67;5.57;;;22.70;78.50;;;;;;5091680;28;20446;-61
2022/05/27 09:55:44;;;;;;;5.70;5.50;;;22.70;78.50;;;;;;5091621;28;20446;-59
2022/05/27 09:58:11;;;;;;;6.10;5.90;;;22.70;78.50;;;;;;5091279;28;20492;-61
2022/05/27 10:00:41;;;;;;;5.50;5.40;;;22.70;78.40;;;;;;5091723;28;20954;-60
2022/05/27 10:03:24;;;;;;;5.57;5.47;;;22.70;78.40;;;;;;5091652;28;20449;-60
2022/05/27 10:05:53;;;;;;;6.03;5.93;;;22.70;78.40;;;;;;5091480;28;20442;-62
2022/05/27 10:08:35;;;;;;;6.17;5.90;;;22.70;78.40;;;;;;5091183;28;20466;-62
2022/05/27 10:11:14;;;;;;;6.27;6.13;;;22.70;78.40;;;;;;5091481;28;20450;-61
2022/05/27 10:13:41;;;;;;;6.37;6.17;;;22.70;78.40;;;;;;5091551;28;20933;-62
2022/05/27 10:16:11;;;;;;;6.07;5.87;;;22.70;78.40;;;;;;5091445;28;20450;-59
2022/05/27 10:18:38;;;;;;;6.40;6.30;;;22.70;78.40;;;;;;5091020;28;20478;-62
2022/05/27 10:21:11;;;;;;;5.90;5.80;;;22.60;78.20;;;;;;5091362;28;20448;-61
2022/05/27 10:23:40;;;;;;;5.70;5.60;;;22.70;78.30;;;;;;5091438;28;20446;-60
2022/05/27 10:26:23;;;;;;;5.93;5.80;;;22.70;78.30;;;;;;5091270;28;20438;-60
2022/05/27 10:29:02;;;;;;;5.63;5.53;;;22.70;78.20;;;;;;5091496;28;20477;-61
2022/05/27 10:31:30;;;;;;;6.00;5.80;;;22.70;78.20;;;;;;5091245;28;20446;-58
2022/05/27 10:34:00;;;;;;;5.73;5.63;;;22.70;78.10;;;;;;5091273;28;20446;-61
2022/05/27 10:36:47;;;;;;;5.97;5.87;;;22.70;78.10;;;;;;5091313;28;20450;-62
2022/05/27 10:39:23;;;;;;;6.10;6.00;;;22.70;78.10;;;;;;5091033;28;20852;-59
2022/05/27 10:42:06;;;;;;;6.00;5.90;;;22.70;78.00;;;;;;5091195;28;20445;-59
2022/05/27 10:44:45;;;;;;;6.07;5.97;;;22.70;77.90;;;;;;5091214;28;20446;-59
2022/05/27 10:47:23;;;;;;;5.90;5.70;;;22.70;78.00;;;;;;5094769;28;20446;-62
2022/05/27 10:50:05;;;;;;;5.33;5.23;;;22.70;77.90;;;;;;5094945;28;20458;-61
2022/05/27 10:52:50;;;;;;;5.57;5.47;;;22.70;77.80;;;;;;5094947;28;20450;-58
2022/05/27 10:55:23;;;;;;;5.97;5.77;;;22.70;77.80;;;;;;5094862;28;20434;-61
2022/05/27 11:04:06;;;;;;;5.70;5.60;;;22.70;77.70;;;;;;5094755;28;20498;-61
2022/05/27 11:06:52;;;;;;;5.93;5.83;;;22.70;77.70;;;;;;5094674;28;20454;-61
2022/05/27 11:09:30;;;;;;;5.80;5.70;;;22.70;77.70;;;;;;5094478;28;20469;-62
2022/05/27 11:12:04;;;;;;;5.90;5.80;;;22.70;77.60;;;;;;5094502;28;20449;-61
2022/05/27 11:17:39;;;;;;;5.90;5.80;;;22.70;78.30;;;;;;5094199;28;20426;-61
2022/05/27 11:20:27;;;;;;;5.70;5.60;;;22.70;77.50;;;;;;5094321;28;20477;-61
2022/05/27 11:23:03;;;;;;;6.63;6.43;;;22.70;77.40;;;;;;5080637;28;20473;-59
2022/05/27 11:25:39;;;;;;;6.50;6.40;;;22.70;77.40;;;;;;5094245;28;20453;-63
2022/05/27 11:28:38;;;;;;;6.30;6.20;;;22.70;77.40;;;;;;5093796;28;20478;-61
2022/05/27 11:31:20;;;;;;;5.70;5.60;;;22.70;77.30;;;;;;5080556;28;20461;-61
2022/05/27 11:33:55;;;;;;;5.60;5.50;;;22.70;77.30;;;;;;5094118;28;20945;-61
2022/05/27 11:36:35;;;;;;;6.17;6.00;;;22.70;77.20;;;;;;5094077;28;20442;-62
2022/05/27 11:39:35;;;;;;;7.03;6.93;;;22.70;77.20;;;;;;5093653;28;21007;-60
2022/05/27 11:42:15;;;;;;;5.80;5.70;;;22.80;77.30;;;;;;5093875;28;20438;-62
2022/05/27 11:44:49;;;;;;;5.97;5.87;;;22.80;77.30;;;;;;5094022;28;20435;-61
2022/05/27 11:47:53;;;;;;;6.90;6.80;;;22.70;77.10;;;;;;5093627;28;20450;-62
2022/05/27 11:50:30;;;;;;;6.00;5.77;;;22.70;77.10;;;;;;5093777;28;20449;-60
2022/05/27 11:53:13;;;;;;;6.00;5.90;;;22.80;77.10;;;;;;5093813;28;20453;-59
2022/05/27 11:56:05;;;;;;;5.90;5.80;;;22.80;77.10;;;;;;5093537;28;20950;-63
2022/05/27 11:58:44;;;;;;;6.10;6.00;;;22.80;77.00;;;;;;5089107;28;20486;-58
2022/05/27 12:01:19;;;;;;;6.40;6.30;;;22.80;77.00;;;;;;5093511;28;20446;-61
2022/05/27 12:03:53;;;;;;;6.10;6.00;;;22.80;76.90;;;;;;5093624;28;20442;-62
2022/05/27 12:06:25;;;;;;;6.50;6.00;;;22.80;76.90;;;;;;5093562;28;20445;-58
2022/05/27 12:08:58;;;;;;;5.67;5.57;;;22.80;76.80;;;;;;5093073;28;20991;-61
2022/05/27 12:11:30;;;;;;;6.47;6.30;;;22.80;76.70;;;;;;5093433;28;20450;-60
2022/05/27 12:14:02;;;;;;;5.90;5.80;;;22.80;76.70;;;;;;5093345;28;20449;-59
2022/05/27 12:16:32;;;;;;;6.07;5.90;;;22.80;76.60;;;;;;5093279;28;20446;-62
2022/05/27 12:19:02;;;;;;;5.67;5.57;;;22.80;76.50;;;;;;5092837;28;20567;-60
2022/05/27 12:21:34;;;;;;;6.33;6.13;;;22.80;76.40;;;;;;5093187;28;20447;-62
2022/05/27 12:24:09;;;;;;;5.70;5.60;;;22.80;76.40;;;;;;5093253;28;20794;-60
2022/05/27 12:26:38;;;;;;;6.43;6.23;;;22.90;76.40;;;;;;5093109;28;20442;-62
2022/05/27 12:29:09;;;;;;;5.60;5.50;;;22.80;76.20;;;;;;5092569;28;20470;-60
2022/05/27 12:31:36;;;;;;;6.27;6.07;;;22.90;76.20;;;;;;5092896;28;20799;-59
2022/05/27 12:34:42;;;;;;;5.43;5.33;;;22.90;76.20;;;;;;5092876;28;20450;-60
2022/05/27 12:37:20;;;;;;;6.27;5.97;;;22.90;76.20;;;;;;5073826;28;21212;-61
2022/05/27 12:39:48;;;;;;;5.60;5.50;;;22.90;76.80;;;;;;5092706;28;20831;-61
2022/05/27 12:42:20;;;;;;;5.60;5.50;;;22.90;76.00;;;;;;5092741;28;20449;-60
2022/05/27 12:44:48;;;;;;;5.83;5.73;;;22.90;76.00;;;;;;5092768;28;20669;-59
2022/05/27 12:47:19;;;;;;;5.70;5.60;;;22.90;75.90;;;;;;5092561;28;20508;-59
2022/05/27 12:49:49;;;;;;;5.90;5.80;;;22.90;76.00;;;;;;5092521;28;20455;-62
2022/05/27 12:52:44;;;;;;;6.50;6.33;;;22.90;75.90;;;;;;5092630;28;20453;-61
2022/05/27 12:55:13;;;;;;;5.90;5.80;;;23.00;76.00;;;;;;5074392;28;20450;-61
2022/05/27 13:00:57;;;;;;;5.90;5.80;;;22.90;75.80;;;;;;5092644;28;20796;-60
2022/05/27 13:03:48;;;;;;;5.47;5.37;;;23.00;75.90;;;;;;5092494;28;20933;-62
2022/05/27 13:06:33;;;;;;;5.53;5.43;;;23.00;76.00;;;;;;5092314;28;20438;-61
2022/05/27 13:09:05;;;;;;;5.70;5.60;;;23.00;76.00;;;;;;5091445;28;20446;-62
2022/05/27 13:11:46;;;;;;;5.57;5.47;;;23.00;75.90;;;;;;5092321;28;20803;-60
2022/05/27 13:14:18;;;;;;;5.30;5.20;;;23.00;75.80;;;;;;5092204;28;20532;-60
2022/05/27 13:16:49;;;;;;;5.40;5.30;;;23.00;75.70;;;;;;5092047;28;20467;-61
2022/05/27 13:19:28;;;;;;;5.10;5.00;;;23.00;75.60;;;;;;5091850;28;20493;-62
2022/05/27 13:21:57;;;;;;;6.30;6.13;;;23.00;75.80;;;;;;5092169;28;20958;-62
2022/05/27 13:24:34;;;;;;;6.10;5.90;;;23.00;75.70;;;;;;5091954;28;20446;-65
2022/05/27 13:27:24;;;;;;;5.73;5.53;;;23.10;76.00;;;;;;5091792;28;20464;-64
2022/05/27 13:30:06;;;;;;;5.80;5.70;;;23.00;75.90;;;;;;5084828;28;20565;-64
2022/05/27 13:32:36;;;;;;;5.80;5.63;;;23.10;76.40;;;;;;5091966;28;20485;-63
2022/05/27 13:35:08;;;;;;;5.73;5.30;;;23.10;76.80;;;;;;5091969;28;20446;-64
2022/05/27 13:37:48;;;;;;;5.50;5.40;;;23.10;76.70;;;;;;5091733;28;20442;-65
2022/05/27 13:40:24;;;;;;;6.70;6.50;;;23.10;76.90;;;;;;5091697;28;20473;-64
2022/05/27 13:42:54;;;;;;;5.90;5.80;;;23.20;77.30;;;;;;5091718;28;20446;-64